WetterOnline ( http://www.wetteronline.de )

Wetter aktuell Pinneberg

Aktuelles Wetter: Quickborn (17m)

6-stündlich | Neueste Meldungen
Ortszeit Temperatur Wetter
Do, 16.08. 14:00 26.2° C wolkig
Do, 16.08. 8:00 16.4° C fast wolkenlos
Do, 16.08. 2:00 15.1° C wolkig
Mi, 15.08. 20:00 21.4° C bewölkt
Mi, 15.08. 14:00 21.4° C bedeckt
Mi, 15.08. 8:00 16.6° C bedeckt
Mi, 15.08. 2:00 16.3° C bedeckt
Di, 14.08. 20:00 19.7° C bedeckt
Ortszeit Temperatur Wetter
Do, 16.08. 15:10 26.9° C bewölkt
Do, 16.08. 15:00 26.1° C bewölkt
Do, 16.08. 14:50 26.1° C bewölkt
Do, 16.08. 14:40 26.0° C bewölkt
Do, 16.08. 14:30 25.3° C bewölkt
Do, 16.08. 14:20 25.3° C bewölkt
Do, 16.08. 14:00 26.2° C wolkig
Do, 16.08. 13:30 25.2° C leicht bewölkt
Do, 16.08. 13:00 25.2° C wolkig
Do, 16.08. 12:30 24.0° C fast wolkenlos
Do, 16.08. 12:00 24.2° C fast wolkenlos
Ortszeit Relative Feuchte Sichtweite
Do, 16.08. 14:00 50% 27 km
Do, 16.08. 8:00 90% 9 km
Do, 16.08. 2:00 96% 10 km
Mi, 15.08. 20:00 76% 24 km
Mi, 15.08. 14:00 71% 28 km
Mi, 15.08. 8:00 90% 26 km
Mi, 15.08. 2:00 87% 40 km
Di, 14.08. 20:00 79% 55 km
Ortszeit Relative Feuchte Sichtweite
Do, 16.08. 15:10 47% -
Do, 16.08. 15:00 49% 35 km
Do, 16.08. 14:50 49% -
Do, 16.08. 14:40 50% -
Do, 16.08. 14:30 52% 30 km
Do, 16.08. 14:20 52% -
Do, 16.08. 14:00 50% 27 km
Do, 16.08. 13:30 53% 26 km
Do, 16.08. 13:00 55% 21 km
Do, 16.08. 12:30 58% 20 km
Do, 16.08. 12:00 58% 13 km
Ortszeit Niederschlagsmenge Niederschlagsart
Do, 16.08. 14:00 0.0 l/m2 in 6 Std. -
Do, 16.08. 8:00 0.0 l/m2 in 12 Std. -
Do, 16.08. 2:00 0.0 l/m2 in 6 Std. -
Mi, 15.08. 20:00 0.0 l/m2 in 12 Std. -
Mi, 15.08. 14:00 0.0 l/m2 in 6 Std. -
Mi, 15.08. 8:00 0.1 l/m2 in 12 Std. Sprühregen
Mi, 15.08. 2:00 0.1 l/m2 in 6 Std. Regen
Di, 14.08. 20:00 0.1 l/m2 in 12 Std. -
Ortszeit Niederschlagsmenge Niederschlagsart
Do, 16.08. 15:10 keine Meldung -
Do, 16.08. 15:00 0.0 l/m2 in 1 Std. -
Do, 16.08. 14:50 keine Meldung -
Do, 16.08. 14:40 keine Meldung -
Do, 16.08. 14:30 0.0 l/m2 in 1 Std. -
Do, 16.08. 14:20 keine Meldung -
Do, 16.08. 14:00 0.0 l/m2 in 1 Std. -
Do, 16.08. 13:30 0.0 l/m2 in 1 Std. -
Do, 16.08. 13:00 0.0 l/m2 in 1 Std. -
Do, 16.08. 12:30 0.0 l/m2 in 1 Std. -
Do, 16.08. 12:00 0.0 l/m2 in 1 Std. -
Ortszeit Stärke Spitze Richtung
km/h Bft. km/h Grad Sektor
Do, 16.08. 14:00 17 3 33 200° S
Do, 16.08. 8:00 7 2 11 160° S
Do, 16.08. 2:00 6 1 7 160° S
Mi, 15.08. 20:00 4 1 25 160° S
Mi, 15.08. 14:00 9 2 30 220° SW
Mi, 15.08. 8:00 7 2 18 230° SW
Mi, 15.08. 2:00 9 2 39 260° W
Di, 14.08. 20:00 22 4 47 280° W
Ortszeit Stärke Spitze Richtung
km/h Bft. km/h Grad Sektor
Do, 16.08. 15:10 14 3 - 210° SW
Do, 16.08. 15:00 15 3 30 180° S
Do, 16.08. 14:50 15 3 - 180° S
Do, 16.08. 14:40 14 3 - 190° S
Do, 16.08. 14:30 15 3 30 210° SW
Do, 16.08. 14:20 15 3 - 210° SW
Do, 16.08. 14:00 17 3 31 200° S
Do, 16.08. 13:30 17 3 30 210° SW
Do, 16.08. 13:00 14 3 32 210° SW
Do, 16.08. 12:30 17 3 31 210° SW
Do, 16.08. 12:00 18 3 32 210° SW
Ortszeit Untergrenze Bedeckung Gattung
total tief tief mittel hoch
Do, 16.08. 14:00 1410 m 7/8 - - - -
Do, 16.08. 8:00 1800 m 1/8 1/8 - - -
Do, 16.08. 2:00 10500 m 8/8 0/8 - - -
Mi, 15.08. 20:00 1200 m 7/8 7/8 - - -
Mi, 15.08. 14:00 720 m 8/8 8/8 - - -
Mi, 15.08. 8:00 390 m 8/8 8/8 - - -
Mi, 15.08. 2:00 4200 m 8/8 8/8 - - -
Di, 14.08. 20:00 600 m 8/8 8/8 - - -
Ortszeit Bedeckungsgrad in Achtel und Wolkenuntergrenze
Do, 16.08. 15:10 6(1500m) 7(9000m) 7(9000m)
Do, 16.08. 15:00 6(1470m) 7(9000m) 7(9000m)
Do, 16.08. 14:50 6(1470m) 7(9000m) 7(9000m)
Do, 16.08. 14:40 7(1470m) 7(9000m) 7(9000m)
Do, 16.08. 14:30 7(1470m) 7(9000m) 7(9000m)
Do, 16.08. 14:20 7(1470m) 7(9000m) 7(9000m)
Do, 16.08. 14:00 6(1410m) 7(9000m) 9
Do, 16.08. 13:30 3(1350m) 4(9000m)
Do, 16.08. 13:00 5(1230m) 6(9000m) 7(9000m)
Do, 16.08. 12:30 1(1110m)
Do, 16.08. 12:00 1(1500m)
Ortszeit Luftdruck NN (hPa) Tendenz (hPa in 3 Std.)
Do, 16.08. 14:00 1015 - 1,2
Do, 16.08. 8:00 1017 - 0,4
Do, 16.08. 2:00 1018 - 0,3
Mi, 15.08. 20:00 1017 - 0,1
Mi, 15.08. 14:00 1018 + 0,2
Mi, 15.08. 8:00 1016 + 0,8
Mi, 15.08. 2:00 1015 + 1,5
Di, 14.08. 20:00 1012 + 1,7
Ortszeit Luftdruck NN (hPa) Tendenz (hPa in 3 Std.)
Do, 16.08. 15:10 1014 keine Meldung
Do, 16.08. 15:00 1014 - 1,1
Do, 16.08. 14:50 1014 keine Meldung
Do, 16.08. 14:40 1014 keine Meldung
Do, 16.08. 14:30 1015 - 1,1
Do, 16.08. 14:20 1015 keine Meldung
Do, 16.08. 14:00 1015 - 1,2
Do, 16.08. 13:30 1015 - 1,2
Do, 16.08. 13:00 1015 - 1,2
Do, 16.08. 12:30 1015 - 1,4
Do, 16.08. 12:00 1015 - 1,2
Ortszeit Schneehöhe (cm)
Do, 16.08. 14:00 -
Do, 16.08. 8:00 -
Do, 16.08. 2:00 -
Mi, 15.08. 20:00 -
Mi, 15.08. 14:00 -
Mi, 15.08. 8:00 -
Mi, 15.08. 2:00 -
Di, 14.08. 20:00 -
Ortszeit Schneehöhe (cm)
Do, 16.08. 15:10 -
Do, 16.08. 15:00 -
Do, 16.08. 14:50 -
Do, 16.08. 14:40 -
Do, 16.08. 14:30 -
Do, 16.08. 14:20 -
Do, 16.08. 14:00 -
Do, 16.08. 13:30 -
Do, 16.08. 13:00 -
Do, 16.08. 12:30 -
Do, 16.08. 12:00 -
Link zu dieser Seite / Seite empfehlen

Das Wetter in ...